Time;durP1;ratioP1;P1;durP2;ratioP2;P2;SDS_P1;SDS_P2;PMS_P1;PMS_P2;Temp;Humidity;BMP_temperature;BMP_pressure;BME280_temperature;BME280_humidity;BME280_pressure;Samples;Min_cycle;Max_cycle;Signal;HPM_P1;HPM_P2
2021/06/26 00:07:06;;;;;;;7.47;6.97;;;;;;;22.15;84.83;100499.63;20975478;28;20597;-56
2021/06/26 00:17:06;;;;;;;9.00;8.17;;;;;;;21.85;86.63;100514.69;20968745;28;20226;-64
2021/06/26 00:27:07;;;;;;;8.33;7.60;;;;;;;21.84;87.13;100516.56;20900858;28;20223;-61
2021/06/26 00:37:07;;;;;;;7.63;6.93;;;;;;;21.80;86.58;100526.03;20884253;28;20215;-63
2021/06/26 00:47:12;;;;;;;7.27;6.77;;;;;;;21.90;85.86;100545.75;20962692;28;20224;-59
2021/06/26 00:57:13;;;;;;;7.07;6.47;;;;;;;22.12;84.65;100551.59;20956527;28;20214;-57
2021/06/26 01:07:13;;;;;;;6.03;5.63;;;;;;;22.39;83.93;100567.63;20924815;28;20695;-61
2021/06/26 01:17:13;;;;;;;5.47;4.97;;;;;;;22.56;82.20;100569.34;20880338;28;20216;-61
2021/06/26 01:27:15;;;;;;;5.47;5.07;;;;;;;22.58;82.49;100572.72;20959701;28;20551;-65
2021/06/26 01:37:16;;;;;;;4.77;4.37;;;;;;;22.64;81.89;100588.38;20969406;28;20311;-65
2021/06/26 01:47:16;;;;;;;5.83;5.33;;;;;;;22.60;81.46;100576.13;20964153;28;20571;-64
2021/06/26 01:57:17;;;;;;;5.60;5.20;;;;;;;22.26;83.56;100567.25;20976925;28;20209;-62
2021/06/26 02:07:17;;;;;;;6.17;5.73;;;;;;;21.89;85.10;100549.50;20954131;28;20576;-57
2021/06/26 02:17:19;;;;;;;5.93;5.53;;;;;;;21.88;85.85;100557.81;20975975;28;20222;-65
2021/06/26 02:27:20;;;;;;;5.10;4.77;;;;;;;22.02;86.44;100564.50;20914198;28;20312;-58
2021/06/26 02:37:21;;;;;;;10.03;5.43;;;;;;;22.04;86.12;100557.03;20892695;28;20309;-57
2021/06/26 02:47:22;;;;;;;5.80;5.40;;;;;;;21.85;86.71;100548.13;20875303;28;20723;-57
2021/06/26 02:57:22;;;;;;;6.00;5.47;;;;;;;21.73;87.22;100551.31;20886515;28;20226;-57
2021/06/26 03:07:23;;;;;;;5.40;4.43;;;;;;;22.59;84.29;100552.66;20881615;28;20228;-65
2021/06/26 03:17:23;;;;;;;4.77;4.37;;;;;;;23.15;79.26;100571.84;20882942;28;20226;-60
2021/06/26 03:27:24;;;;;;;4.23;3.93;;;;;;;23.23;78.47;100567.22;20904355;28;20227;-65
2021/06/26 03:37:24;;;;;;;4.90;4.50;;;;;;;23.95;74.72;100573.44;20883534;28;20239;-65
2021/06/26 03:47:26;;;;;;;4.13;3.83;;;;;;;23.10;74.48;100593.28;20904216;28;20757;-58
2021/06/26 03:57:26;;;;;;;4.10;3.90;;;;;;;22.72;75.55;100594.81;20881183;28;20234;-58
2021/06/26 04:07:27;;;;;;;4.13;3.60;;;;;;;22.68;75.84;100604.38;20903302;28;20227;-59
2021/06/26 04:17:27;;;;;;;5.15;3.80;;;;;;;22.71;74.27;100599.41;20884685;28;20549;-66
2021/06/26 04:27:28;;;;;;;3.47;3.03;;;;;;;27.00;62.54;100613.28;20914161;28;20242;-58
2021/06/26 04:37:28;;;;;;;3.27;3.00;;;;;;;30.55;50.23;100620.31;20973648;28;20476;-58
2021/06/26 04:47:29;;;;;;;3.87;3.30;;;;;;;31.47;48.11;100636.16;20926130;28;20219;-59
2021/06/26 04:57:30;;;;;;;3.13;2.92;;;;;;;32.83;43.30;100634.91;20937375;28;20241;-60
2021/06/26 05:07:31;;;;;;;3.30;3.00;;;;;;;33.71;42.02;100643.16;20903406;28;20235;-64
2021/06/26 05:17:31;;;;;;;3.38;3.10;;;;;;;30.12;50.65;100647.66;20896315;28;20220;-58
2021/06/26 05:27:32;;;;;;;3.43;3.00;;;;;;;28.12;55.28;100637.84;20934837;28;20226;-65
2021/06/26 05:37:33;;;;;;;3.20;3.00;;;;;;;27.32;57.48;100658.41;20977688;28;20280;-60
2021/06/26 05:47:33;;;;;;;5.57;4.40;;;;;;;27.52;56.49;100640.25;20951784;28;20234;-62
2021/06/26 05:57:33;;;;;;;3.47;3.27;;;;;;;27.84;54.00;100632.44;20970773;28;20688;-58
2021/06/26 06:07:37;;;;;;;3.10;2.90;;;;;;;27.95;52.81;100635.44;20966775;28;20227;-64
2021/06/26 06:17:40;;;;;;;3.30;2.90;;;;;;;27.98;54.11;100639.69;20964352;28;20234;-65
2021/06/26 06:27:41;;;;;;;2.80;2.60;;;;;;;28.16;54.14;100650.91;20973019;28;20570;-63
2021/06/26 06:37:55;;;;;;;4.00;3.70;;;;;;;27.04;54.51;100643.88;20929341;28;20378;-59
2021/06/26 06:47:55;;;;;;;3.70;3.40;;;;;;;26.04;57.48;100649.25;20949232;28;20471;-66
2021/06/26 06:57:56;;;;;;;4.03;3.67;;;;;;;26.74;57.62;100648.59;20945380;28;20246;-66
2021/06/26 07:07:56;;;;;;;3.40;3.20;;;;;;;27.25;57.45;100672.09;20977419;28;20250;-59
2021/06/26 07:17:57;;;;;;;3.60;3.30;;;;;;;28.25;54.82;100673.59;20962212;28;20219;-59
2021/06/26 07:27:57;;;;;;;5.70;3.67;;;;;;;28.42;53.96;100669.41;20961086;28;20311;-59
2021/06/26 07:37:58;;;;;;;3.65;3.45;;;;;;;28.55;52.93;100679.59;20955433;28;20304;-64
2021/06/26 07:47:58;;;;;;;3.50;3.20;;;;;;;29.93;52.14;100673.31;20957228;28;20302;-65
2021/06/26 07:57:59;;;;;;;3.10;2.90;;;;;;;30.42;50.73;100665.31;20936428;28;20281;-66
2021/06/26 08:07:59;;;;;;;3.40;3.10;;;;;;;28.87;50.73;100664.25;20880374;28;20921;-65
2021/06/26 08:18:00;;;;;;;5.18;3.35;;;;;;;29.11;48.65;100651.81;20935074;28;20599;-60
2021/06/26 08:38:08;;;;;;;4.07;3.67;;;;;;;27.84;52.13;100654.38;20590827;27;8482944;-59
2021/06/26 09:08:27;;;;;;;4.57;4.17;;;;;;;27.56;57.36;100671.69;20596861;27;8098500;-63
2021/06/26 09:18:27;;;;;;;6.07;3.88;;;;;;;29.90;50.19;100658.09;20864507;28;20227;-63
2021/06/26 09:28:28;;;;;;;3.28;2.95;;;;;;;31.03;48.29;100659.22;20874795;28;20227;-60
2021/06/26 09:38:31;;;;;;;3.00;2.80;;;;;;;30.39;47.77;100651.13;20853717;28;20274;-58
2021/06/26 09:48:31;;;;;;;2.53;2.30;;;;;;;28.20;47.04;100644.00;20875690;28;20628;-58
2021/06/26 09:58:36;;;;;;;2.50;2.30;;;;;;;28.82;46.53;100636.59;20857213;28;20241;-58
2021/06/26 10:08:38;;;;;;;2.60;2.40;;;;;;;29.59;43.92;100634.03;20957957;28;20239;-58
2021/06/26 10:28:59;;;;;;;2.95;2.75;;;;;;;29.59;43.05;100620.28;20666901;27;8288425;-59
2021/06/26 10:38:59;;;;;;;2.53;2.42;;;;;;;29.24;46.82;100608.66;20932569;28;20243;-64
2021/06/26 10:59:20;;;;;;;3.25;2.97;;;;;;;29.46;46.26;100617.56;20615448;27;8020131;-59
2021/06/26 11:09:21;;;;;;;2.97;2.78;;;;;;;30.10;45.28;100605.72;20844367;28;20243;-59
2021/06/26 11:19:32;;;;;;;3.03;2.83;;;;;;;28.94;47.09;100613.78;20879339;28;20231;-60
2021/06/26 11:39:46;;;;;;;3.63;3.30;;;;;;;29.80;46.97;100618.31;20595978;27;8304131;-58
2021/06/26 11:49:46;;;;;;;3.53;3.20;;;;;;;29.80;46.51;100596.31;20855487;28;20231;-61
2021/06/26 12:19:53;;;;;;;3.70;2.80;;;;;;;29.93;46.92;100590.75;20728167;27;8298366;-65
2021/06/26 12:29:58;;;;;;;2.92;2.72;;;;;;;31.19;45.80;100579.78;20950798;28;20227;-61
2021/06/26 12:40:13;;;;;;;3.13;2.92;;;;;;;31.54;41.76;100575.38;20954206;28;20233;-65
2021/06/26 12:50:15;;;;;;;3.50;2.90;;;;;;;32.04;42.13;100562.25;20952707;28;20272;-66
2021/06/26 13:00:17;;;;;;;3.58;2.83;;;;;;;32.46;41.39;100560.41;20936500;28;20219;-66
2021/06/26 13:20:26;;;;;;;3.10;2.75;;;;;;;31.82;42.11;100537.06;20583204;27;8320719;-60
2021/06/26 13:50:35;;;;;;;2.95;2.65;;;;;;;31.11;40.24;100534.91;20593164;27;8271652;-56
2021/06/26 14:00:35;;;;;;;3.10;2.90;;;;;;;30.17;41.97;100532.22;20867043;28;20261;-57
2021/06/26 14:10:37;;;;;;;3.70;3.25;;;;;;;30.35;41.99;100517.69;20832683;28;20221;-66
2021/06/26 14:30:46;;;;;;;3.20;2.90;;;;;;;29.56;41.55;100513.47;20494803;27;8252902;-58
2021/06/26 14:50:55;;;;;;;2.60;2.50;;;;;;;29.57;41.94;100498.66;20735811;27;8255994;-64
2021/06/26 15:00:57;;;;;;;2.10;2.00;;;;;;;30.58;43.18;100506.09;21044418;28;20332;-66
2021/06/26 15:10:57;;;;;;;3.92;3.05;;;;;;;30.19;41.74;100515.50;21014412;28;20281;-63
2021/06/26 15:31:05;;;;;;;3.22;2.95;;;;;;;30.76;41.11;100501.50;20655747;28;8436598;-66
2021/06/26 15:41:07;;;;;;;2.65;2.47;;;;;;;30.65;40.53;100490.38;20948318;28;20245;-64
2021/06/26 16:31:34;;;;;;;2.85;2.65;;;;;;;29.69;44.84;100472.13;20558709;27;9418511;-66
2021/06/26 16:41:35;;;;;;;4.10;3.80;;;;;;;30.15;44.33;100475.69;20858758;28;20962;-59
2021/06/26 17:01:50;;;;;;;2.90;2.70;;;;;;;30.23;43.43;100445.97;20709230;27;8159785;-57
2021/06/26 17:11:51;;;;;;;2.90;2.70;;;;;;;30.45;44.22;100458.28;21027795;28;20226;-61
2021/06/26 17:22:04;;;;;;;2.60;2.50;;;;;;;29.59;46.49;100463.50;21035114;28;20230;-62
2021/06/26 17:32:05;;;;;;;2.97;2.77;;;;;;;28.67;48.30;100474.69;21029401;28;20250;-59
2021/06/26 17:52:13;;;;;;;4.40;4.10;;;;;;;27.94;47.65;100468.28;20664438;27;8242966;-56
2021/06/26 18:02:14;;;;;;;3.53;3.33;;;;;;;27.56;50.27;100478.94;20960991;28;20232;-59
2021/06/26 18:12:15;;;;;;;3.40;3.20;;;;;;;27.01;52.46;100483.47;20938827;28;20253;-62
2021/06/26 19:12:02;;;;;;;3.47;3.27;;;;;;;24.70;56.59;100546.34;20604030;27;8320441;-60
2021/06/26 19:22:03;;;;;;;3.70;3.50;;;;;;;24.04;58.32;100556.00;20856149;28;20277;-65
2021/06/26 19:32:04;;;;;;;4.33;4.07;;;;;;;23.41;61.06;100571.63;20876015;28;20227;-63
2021/06/26 19:42:04;;;;;;;5.50;4.17;;;;;;;22.96;65.57;100560.31;20851859;28;20254;-62
2021/06/26 19:52:05;;;;;;;4.80;4.40;;;;;;;22.65;66.74;100578.34;20870663;28;20352;-67
2021/06/26 20:02:06;;;;;;;5.80;5.30;;;;;;;22.31;68.38;100581.22;20854737;28;20234;-64
2021/06/26 23:40:52;;;;;;;8.00;7.40;;;;;;;18.71;85.22;100608.00;20516887;27;8270899;-67
2021/06/26 23:50:52;;;;;;;8.50;7.77;;;;;;;18.60;84.58;100608.97;20783370;28;20229;-60
